sensor_id;sensor_type;location;lat;lon;timestamp;pressure;altitude;pressure_sealevel;temperature;humidity
21234;BME280;10774;42.178;26.578;2022-08-03T00:00:17;99867.50;;;21.18;94.63
21234;BME280;10774;42.178;26.578;2022-08-03T00:02:42;99863.66;;;21.53;93.25
21234;BME280;10774;42.178;26.578;2022-08-03T00:05:08;99866.53;;;21.59;91.88
21234;BME280;10774;42.178;26.578;2022-08-03T00:07:33;99869.63;;;21.64;92.02
21234;BME280;10774;42.178;26.578;2022-08-03T00:09:59;99858.50;;;21.66;91.88
21234;BME280;10774;42.178;26.578;2022-08-03T00:12:24;99873.88;;;21.83;90.97
21234;BME280;10774;42.178;26.578;2022-08-03T00:14:50;99864.16;;;21.73;90.55
21234;BME280;10774;42.178;26.578;2022-08-03T00:17:15;99873.00;;;21.91;90.30
21234;BME280;10774;42.178;26.578;2022-08-03T00:19:41;99879.28;;;22.08;89.04
21234;BME280;10774;42.178;26.578;2022-08-03T00:22:06;99872.31;;;21.81;89.28
21234;BME280;10774;42.178;26.578;2022-08-03T00:24:31;99881.22;;;21.50;91.14
21234;BME280;10774;42.178;26.578;2022-08-03T00:26:58;99882.16;;;21.08;93.71
21234;BME280;10774;42.178;26.578;2022-08-03T00:29:23;99869.91;;;21.21;93.25
21234;BME280;10774;42.178;26.578;2022-08-03T00:31:48;99872.25;;;21.07;93.54
21234;BME280;10774;42.178;26.578;2022-08-03T00:34:14;99877.75;;;21.24;92.49
21234;BME280;10774;42.178;26.578;2022-08-03T00:36:39;99867.06;;;21.30;91.54
21234;BME280;10774;42.178;26.578;2022-08-03T00:39:05;99877.44;;;21.51;90.36
21234;BME280;10774;42.178;26.578;2022-08-03T00:41:30;99866.56;;;21.67;88.34
21234;BME280;10774;42.178;26.578;2022-08-03T00:43:55;99885.31;;;21.71;88.13
21234;BME280;10774;42.178;26.578;2022-08-03T00:46:21;99873.72;;;21.36;88.52
21234;BME280;10774;42.178;26.578;2022-08-03T00:48:48;99860.72;;;21.38;88.91
21234;BME280;10774;42.178;26.578;2022-08-03T00:51:13;99875.94;;;21.57;88.07
21234;BME280;10774;42.178;26.578;2022-08-03T00:53:39;99884.13;;;21.57;88.40
21234;BME280;10774;42.178;26.578;2022-08-03T00:56:05;99872.66;;;21.45;88.64
21234;BME280;10774;42.178;26.578;2022-08-03T00:58:31;99883.59;;;21.37;89.07
21234;BME280;10774;42.178;26.578;2022-08-03T01:03:31;99879.88;;;21.46;88.16
21234;BME280;10774;42.178;26.578;2022-08-03T01:06:21;99876.09;;;21.47;88.16
21234;BME280;10774;42.178;26.578;2022-08-03T01:08:54;99873.19;;;21.49;87.97
21234;BME280;10774;42.178;26.578;2022-08-03T01:11:39;99875.91;;;21.40;88.57
21234;BME280;10774;42.178;26.578;2022-08-03T01:17:58;99871.66;;;21.38;89.27
21234;BME280;10774;42.178;26.578;2022-08-03T01:20:26;99880.72;;;21.47;88.36
21234;BME280;10774;42.178;26.578;2022-08-03T01:26:08;99881.56;;;21.31;88.65
21234;BME280;10774;42.178;26.578;2022-08-03T01:31:06;99878.94;;;21.29;89.52
21234;BME280;10774;42.178;26.578;2022-08-03T01:33:38;99878.28;;;21.35;89.02
21234;BME280;10774;42.178;26.578;2022-08-03T01:36:08;99876.78;;;21.49;87.97
21234;BME280;10774;42.178;26.578;2022-08-03T01:38:41;99864.31;;;20.72;92.42
21234;BME280;10774;42.178;26.578;2022-08-03T01:41:11;99865.41;;;19.67;98.24
21234;BME280;10774;42.178;26.578;2022-08-03T01:43:39;99885.25;;;19.41;100.00
21234;BME280;10774;42.178;26.578;2022-08-03T01:46:07;99873.19;;;19.26;100.00
21234;BME280;10774;42.178;26.578;2022-08-03T01:48:36;99871.25;;;19.36;100.00
21234;BME280;10774;42.178;26.578;2022-08-03T01:51:05;99885.09;;;19.61;100.00
21234;BME280;10774;42.178;26.578;2022-08-03T01:53:32;99872.31;;;19.79;100.00
21234;BME280;10774;42.178;26.578;2022-08-03T01:55:59;99884.06;;;20.05;100.00
21234;BME280;10774;42.178;26.578;2022-08-03T01:58:27;99884.28;;;20.12;100.00
21234;BME280;10774;42.178;26.578;2022-08-03T02:00:55;99885.56;;;20.26;99.20
21234;BME280;10774;42.178;26.578;2022-08-03T02:03:26;99883.22;;;20.31;98.99
21234;BME280;10774;42.178;26.578;2022-08-03T02:05:53;99880.59;;;20.47;97.51
21234;BME280;10774;42.178;26.578;2022-08-03T02:08:21;99888.78;;;20.47;97.48
21234;BME280;10774;42.178;26.578;2022-08-03T02:10:48;99877.59;;;20.67;96.42
21234;BME280;10774;42.178;26.578;2022-08-03T02:13:15;99883.94;;;20.67;96.09
21234;BME280;10774;42.178;26.578;2022-08-03T02:15:43;99875.50;;;20.52;96.48
21234;BME280;10774;42.178;26.578;2022-08-03T02:18:10;99884.06;;;20.57;96.26
21234;BME280;10774;42.178;26.578;2022-08-03T02:20:38;99904.00;;;20.58;96.25
21234;BME280;10774;42.178;26.578;2022-08-03T02:23:05;99884.63;;;20.43;96.14
21234;BME280;10774;42.178;26.578;2022-08-03T02:25:32;99892.59;;;20.62;95.38
21234;BME280;10774;42.178;26.578;2022-08-03T02:28:07;99901.56;;;20.89;94.35
21234;BME280;10774;42.178;26.578;2022-08-03T02:30:37;99880.34;;;20.75;93.66
21234;BME280;10774;42.178;26.578;2022-08-03T02:33:04;99888.03;;;20.45;95.51
21234;BME280;10774;42.178;26.578;2022-08-03T02:35:32;99890.38;;;19.44;100.00
21234;BME280;10774;42.178;26.578;2022-08-03T02:38:03;99897.31;;;18.75;100.00
21234;BME280;10774;42.178;26.578;2022-08-03T02:40:30;99892.09;;;18.82;100.00
21234;BME280;10774;42.178;26.578;2022-08-03T02:43:02;99903.38;;;18.87;100.00
21234;BME280;10774;42.178;26.578;2022-08-03T02:45:31;99905.75;;;19.18;100.00
21234;BME280;10774;42.178;26.578;2022-08-03T02:48:02;99913.16;;;19.43;100.00
21234;BME280;10774;42.178;26.578;2022-08-03T02:50:28;99906.69;;;19.44;100.00
21234;BME280;10774;42.178;26.578;2022-08-03T02:52:56;99903.84;;;19.64;100.00
21234;BME280;10774;42.178;26.578;2022-08-03T02:55:25;99902.66;;;19.48;100.00
21234;BME280;10774;42.178;26.578;2022-08-03T02:57:51;99904.88;;;19.63;100.00
21234;BME280;10774;42.178;26.578;2022-08-03T03:00:17;99908.41;;;19.81;100.00
21234;BME280;10774;42.178;26.578;2022-08-03T03:02:43;99906.44;;;19.91;99.99
21234;BME280;10774;42.178;26.578;2022-08-03T03:05:10;99912.38;;;19.87;99.66
21234;BME280;10774;42.178;26.578;2022-08-03T03:07:37;99913.22;;;19.87;100.00
21234;BME280;10774;42.178;26.578;2022-08-03T03:10:05;99904.16;;;20.04;98.45
21234;BME280;10774;42.178;26.578;2022-08-03T03:12:32;99904.03;;;20.14;97.39
21234;BME280;10774;42.178;26.578;2022-08-03T03:14:57;99892.56;;;20.02;96.86
21234;BME280;10774;42.178;26.578;2022-08-03T03:17:23;99897.38;;;19.65;99.04
21234;BME280;10774;42.178;26.578;2022-08-03T03:19:50;99898.22;;;19.83;98.60
21234;BME280;10774;42.178;26.578;2022-08-03T03:22:16;99904.47;;;20.01;97.78
21234;BME280;10774;42.178;26.578;2022-08-03T03:24:43;99921.13;;;19.98;97.72
21234;BME280;10774;42.178;26.578;2022-08-03T03:27:10;99909.63;;;20.04;97.10
21234;BME280;10774;42.178;26.578;2022-08-03T03:29:35;99917.25;;;20.27;95.24
21234;BME280;10774;42.178;26.578;2022-08-03T03:32:01;99923.81;;;19.90;97.87
21234;BME280;10774;42.178;26.578;2022-08-03T03:34:28;99917.06;;;19.41;100.00
21234;BME280;10774;42.178;26.578;2022-08-03T03:36:54;99917.28;;;19.47;100.00
21234;BME280;10774;42.178;26.578;2022-08-03T03:39:20;99931.06;;;19.81;99.92
21234;BME280;10774;42.178;26.578;2022-08-03T03:41:45;99933.75;;;19.99;99.08
21234;BME280;10774;42.178;26.578;2022-08-03T03:44:11;99927.97;;;20.02;97.26
21234;BME280;10774;42.178;26.578;2022-08-03T03:46:37;99929.06;;;20.09;96.46
21234;BME280;10774;42.178;26.578;2022-08-03T03:49:05;99928.09;;;20.19;95.36
21234;BME280;10774;42.178;26.578;2022-08-03T03:51:31;99939.84;;;20.19;95.46
21234;BME280;10774;42.178;26.578;2022-08-03T03:53:58;99929.19;;;20.26;95.15
21234;BME280;10774;42.178;26.578;2022-08-03T03:56:24;99942.91;;;20.42;94.45
21234;BME280;10774;42.178;26.578;2022-08-03T03:58:50;99940.22;;;20.50;94.02
21234;BME280;10774;42.178;26.578;2022-08-03T04:01:15;99949.16;;;20.60;94.01
21234;BME280;10774;42.178;26.578;2022-08-03T04:03:41;99939.63;;;20.65;93.00
21234;BME280;10774;42.178;26.578;2022-08-03T04:06:07;99946.56;;;20.85;92.27
21234;BME280;10774;42.178;26.578;2022-08-03T04:08:51;99944.88;;;20.92;90.67
21234;BME280;10774;42.178;26.578;2022-08-03T04:11:52;99951.09;;;21.10;90.06
21234;BME280;10774;42.178;26.578;2022-08-03T04:14:35;99957.47;;;20.93;90.86
21234;BME280;10774;42.178;26.578;2022-08-03T04:17:04;99944.38;;;20.97;90.22
21234;BME280;10774;42.178;26.578;2022-08-03T04:19:34;99951.22;;;20.67;92.63
21234;BME280;10774;42.178;26.578;2022-08-03T04:22:11;99944.50;;;20.87;91.88
21234;BME280;10774;42.178;26.578;2022-08-03T04:24:41;99955.59;;;20.85;92.30
21234;BME280;10774;42.178;26.578;2022-08-03T04:27:10;99954.50;;;21.12;91.50
21234;BME280;10774;42.178;26.578;2022-08-03T04:29:39;99955.38;;;21.21;91.11
21234;BME280;10774;42.178;26.578;2022-08-03T04:32:06;99937.13;;;21.22;90.62
21234;BME280;10774;42.178;26.578;2022-08-03T04:34:33;99958.00;;;21.39;90.39
21234;BME280;10774;42.178;26.578;2022-08-03T04:37:02;99955.97;;;21.49;89.84
21234;BME280;10774;42.178;26.578;2022-08-03T04:39:31;99957.59;;;21.18;91.43
21234;BME280;10774;42.178;26.578;2022-08-03T04:42:02;99960.75;;;21.39;91.13
21234;BME280;10774;42.178;26.578;2022-08-03T04:44:30;99944.09;;;21.16;92.67
21234;BME280;10774;42.178;26.578;2022-08-03T04:46:59;99956.34;;;21.46;92.19
21234;BME280;10774;42.178;26.578;2022-08-03T04:49:25;99964.91;;;21.84;89.78
21234;BME280;10774;42.178;26.578;2022-08-03T04:51:51;99950.75;;;20.71;96.21
21234;BME280;10774;42.178;26.578;2022-08-03T04:54:17;99952.91;;;20.59;98.15
21234;BME280;10774;42.178;26.578;2022-08-03T04:56:42;99958.94;;;21.13;95.66
21234;BME280;10774;42.178;26.578;2022-08-03T04:59:09;99958.38;;;21.60;93.58
21234;BME280;10774;42.178;26.578;2022-08-03T05:01:35;99967.59;;;21.43;94.15
21234;BME280;10774;42.178;26.578;2022-08-03T05:04:01;99970.66;;;21.48;95.18
21234;BME280;10774;42.178;26.578;2022-08-03T05:06:26;99964.56;;;21.79;93.06
21234;BME280;10774;42.178;26.578;2022-08-03T05:08:51;99957.22;;;21.12;96.68
21234;BME280;10774;42.178;26.578;2022-08-03T05:11:17;99950.91;;;21.62;94.20
21234;BME280;10774;42.178;26.578;2022-08-03T05:13:44;99959.59;;;21.90;92.35
21234;BME280;10774;42.178;26.578;2022-08-03T05:16:10;99972.59;;;22.29;90.74
21234;BME280;10774;42.178;26.578;2022-08-03T05:18:36;99975.34;;;22.13;90.51
21234;BME280;10774;42.178;26.578;2022-08-03T05:21:02;99960.81;;;22.04;91.25
21234;BME280;10774;42.178;26.578;2022-08-03T05:23:27;99973.78;;;22.02;91.26
21234;BME280;10774;42.178;26.578;2022-08-03T05:25:52;99963.19;;;22.24;89.11
21234;BME280;10774;42.178;26.578;2022-08-03T05:28:18;99977.22;;;22.12;90.32
21234;BME280;10774;42.178;26.578;2022-08-03T05:30:43;99976.00;;;21.74;92.87
21234;BME280;10774;42.178;26.578;2022-08-03T05:33:09;99968.50;;;22.33;90.35
21234;BME280;10774;42.178;26.578;2022-08-03T05:35:35;99964.88;;;22.49;88.04
21234;BME280;10774;42.178;26.578;2022-08-03T05:38:03;99976.72;;;22.97;85.72
21234;BME280;10774;42.178;26.578;2022-08-03T05:40:29;99990.84;;;23.17;84.26
21234;BME280;10774;42.178;26.578;2022-08-03T05:42:54;99992.09;;;22.98;84.56
21234;BME280;10774;42.178;26.578;2022-08-03T05:45:20;99987.66;;;23.05;84.82
21234;BME280;10774;42.178;26.578;2022-08-03T05:47:45;99992.81;;;22.92;85.39
21234;BME280;10774;42.178;26.578;2022-08-03T05:50:11;99973.97;;;22.97;84.84
21234;BME280;10774;42.178;26.578;2022-08-03T05:52:38;99976.09;;;23.49;81.97
21234;BME280;10774;42.178;26.578;2022-08-03T05:55:05;99985.59;;;23.69;80.88
21234;BME280;10774;42.178;26.578;2022-08-03T05:57:30;99996.22;;;23.33;82.77
21234;BME280;10774;42.178;26.578;2022-08-03T05:59:56;99977.34;;;23.15;83.30
21234;BME280;10774;42.178;26.578;2022-08-03T06:02:21;99976.44;;;23.23;83.31
21234;BME280;10774;42.178;26.578;2022-08-03T06:04:46;99976.97;;;23.18;83.18
21234;BME280;10774;42.178;26.578;2022-08-03T06:07:12;99992.47;;;23.65;82.23
21234;BME280;10774;42.178;26.578;2022-08-03T06:09:37;99982.91;;;24.07;78.81
21234;BME280;10774;42.178;26.578;2022-08-03T06:12:03;99984.44;;;23.87;79.54
21234;BME280;10774;42.178;26.578;2022-08-03T06:14:29;99988.03;;;23.64;81.21
21234;BME280;10774;42.178;26.578;2022-08-03T06:16:54;99984.00;;;23.98;78.60
21234;BME280;10774;42.178;26.578;2022-08-03T06:19:20;99999.00;;;23.87;79.11
21234;BME280;10774;42.178;26.578;2022-08-03T06:21:45;99996.41;;;24.09;74.63
21234;BME280;10774;42.178;26.578;2022-08-03T06:24:10;99991.53;;;24.57;73.40
21234;BME280;10774;42.178;26.578;2022-08-03T06:26:36;99982.88;;;25.12;70.87
21234;BME280;10774;42.178;26.578;2022-08-03T06:29:01;99972.28;;;25.45;69.12
21234;BME280;10774;42.178;26.578;2022-08-03T06:31:27;99986.25;;;25.65;67.22
21234;BME280;10774;42.178;26.578;2022-08-03T06:33:54;99983.28;;;25.81;66.31
21234;BME280;10774;42.178;26.578;2022-08-03T06:36:19;99974.44;;;25.86;53.97
21234;BME280;10774;42.178;26.578;2022-08-03T06:38:44;99987.38;;;26.14;50.39
21234;BME280;10774;42.178;26.578;2022-08-03T06:41:10;99985.44;;;26.36;50.50
21234;BME280;10774;42.178;26.578;2022-08-03T06:43:35;99980.16;;;26.34;49.74
21234;BME280;10774;42.178;26.578;2022-08-03T06:46:02;99968.94;;;26.36;48.04
21234;BME280;10774;42.178;26.578;2022-08-03T06:48:28;99980.56;;;26.52;47.42
21234;BME280;10774;42.178;26.578;2022-08-03T06:50:53;99971.72;;;26.64;48.41
21234;BME280;10774;42.178;26.578;2022-08-03T06:53:19;99971.78;;;26.70;48.60
21234;BME280;10774;42.178;26.578;2022-08-03T06:55:44;99985.53;;;26.70;48.50
21234;BME280;10774;42.178;26.578;2022-08-03T06:58:10;99969.97;;;26.84;46.49
21234;BME280;10774;42.178;26.578;2022-08-03T07:00:35;99972.75;;;26.91;47.60
21234;BME280;10774;42.178;26.578;2022-08-03T07:03:00;99978.31;;;27.04;47.41
21234;BME280;10774;42.178;26.578;2022-08-03T07:05:26;99971.22;;;27.23;47.36
21234;BME280;10774;42.178;26.578;2022-08-03T07:07:55;99979.56;;;27.01;46.38
21234;BME280;10774;42.178;26.578;2022-08-03T07:10:21;99975.75;;;27.02;45.85
21234;BME280;10774;42.178;26.578;2022-08-03T07:12:47;99966.31;;;26.83;46.85
21234;BME280;10774;42.178;26.578;2022-08-03T07:15:12;99967.84;;;27.27;46.82
21234;BME280;10774;42.178;26.578;2022-08-03T07:17:38;99973.38;;;27.27;45.27
21234;BME280;10774;42.178;26.578;2022-08-03T07:20:07;99979.25;;;27.11;45.69
21234;BME280;10774;42.178;26.578;2022-08-03T07:22:33;99973.31;;;26.79;45.44
21234;BME280;10774;42.178;26.578;2022-08-03T07:24:59;99980.88;;;27.05;44.68
21234;BME280;10774;42.178;26.578;2022-08-03T07:27:25;99976.38;;;27.46;45.81
21234;BME280;10774;42.178;26.578;2022-08-03T07:29:55;99972.63;;;27.53;45.12
21234;BME280;10774;42.178;26.578;2022-08-03T07:32:20;99977.72;;;27.63;44.61
21234;BME280;10774;42.178;26.578;2022-08-03T07:34:46;99975.97;;;27.01;43.58
21234;BME280;10774;42.178;26.578;2022-08-03T07:37:11;99974.22;;;27.34;45.10
21234;BME280;10774;42.178;26.578;2022-08-03T07:39:37;99972.63;;;27.60;43.71
21234;BME280;10774;42.178;26.578;2022-08-03T07:42:02;99978.50;;;27.44;42.64
21234;BME280;10774;42.178;26.578;2022-08-03T07:44:28;99974.31;;;27.61;43.41
21234;BME280;10774;42.178;26.578;2022-08-03T07:46:53;99982.75;;;27.46;42.24
21234;BME280;10774;42.178;26.578;2022-08-03T07:49:19;99975.06;;;27.28;42.37
21234;BME280;10774;42.178;26.578;2022-08-03T07:51:44;99969.28;;;27.71;42.05
21234;BME280;10774;42.178;26.578;2022-08-03T07:54:09;99978.22;;;28.00;42.17
21234;BME280;10774;42.178;26.578;2022-08-03T07:56:36;99974.00;;;28.30;41.30
21234;BME280;10774;42.178;26.578;2022-08-03T07:59:02;99974.44;;;28.60;40.85
21234;BME280;10774;42.178;26.578;2022-08-03T08:01:28;99971.44;;;28.62;40.83
21234;BME280;10774;42.178;26.578;2022-08-03T08:03:53;99987.19;;;28.55;39.77
21234;BME280;10774;42.178;26.578;2022-08-03T08:06:19;99985.91;;;28.71;39.90
21234;BME280;10774;42.178;26.578;2022-08-03T08:08:45;99989.28;;;28.73;40.38
21234;BME280;10774;42.178;26.578;2022-08-03T08:11:10;99977.59;;;28.77;39.67
21234;BME280;10774;42.178;26.578;2022-08-03T08:13:36;99981.63;;;28.81;38.79
21234;BME280;10774;42.178;26.578;2022-08-03T08:16:03;99977.81;;;28.76;38.47
21234;BME280;10774;42.178;26.578;2022-08-03T08:18:29;99979.06;;;28.73;38.32
21234;BME280;10774;42.178;26.578;2022-08-03T08:20:54;99980.75;;;28.87;39.17
21234;BME280;10774;42.178;26.578;2022-08-03T08:23:20;99975.41;;;28.92;38.94
21234;BME280;10774;42.178;26.578;2022-08-03T08:25:51;99969.34;;;28.51;38.29
21234;BME280;10774;42.178;26.578;2022-08-03T08:28:18;99965.41;;;29.11;38.40
21234;BME280;10774;42.178;26.578;2022-08-03T08:30:44;99974.41;;;28.80;37.32
21234;BME280;10774;42.178;26.578;2022-08-03T08:33:10;99965.91;;;28.75;37.27
21234;BME280;10774;42.178;26.578;2022-08-03T08:35:35;99952.34;;;28.54;37.57
21234;BME280;10774;42.178;26.578;2022-08-03T08:38:01;99966.31;;;28.79;37.26
21234;BME280;10774;42.178;26.578;2022-08-03T08:40:27;99970.38;;;28.76;38.17
21234;BME280;10774;42.178;26.578;2022-08-03T08:42:53;99964.94;;;29.21;37.03
21234;BME280;10774;42.178;26.578;2022-08-03T08:45:19;99978.81;;;29.08;36.76
21234;BME280;10774;42.178;26.578;2022-08-03T08:47:47;99967.13;;;29.06;37.50
21234;BME280;10774;42.178;26.578;2022-08-03T08:50:17;99979.94;;;28.80;36.38
21234;BME280;10774;42.178;26.578;2022-08-03T08:52:45;99968.50;;;28.50;36.88
21234;BME280;10774;42.178;26.578;2022-08-03T08:55:13;99976.84;;;29.15;36.99
21234;BME280;10774;42.178;26.578;2022-08-03T08:57:45;99973.06;;;29.16;35.86
21234;BME280;10774;42.178;26.578;2022-08-03T09:00:12;99973.06;;;29.16;36.13
21234;BME280;10774;42.178;26.578;2022-08-03T09:02:39;99970.53;;;29.59;36.60
21234;BME280;10774;42.178;26.578;2022-08-03T09:05:09;99973.50;;;29.96;36.58
21234;BME280;10774;42.178;26.578;2022-08-03T09:07:36;99951.44;;;29.83;35.30
21234;BME280;10774;42.178;26.578;2022-08-03T09:10:02;99959.31;;;29.79;35.29
21234;BME280;10774;42.178;26.578;2022-08-03T09:12:27;99969.41;;;29.99;36.56
21234;BME280;10774;42.178;26.578;2022-08-03T09:14:54;99974.69;;;30.07;36.56
21234;BME280;10774;42.178;26.578;2022-08-03T09:17:19;99962.78;;;30.31;36.07
21234;BME280;10774;42.178;26.578;2022-08-03T09:20:04;99965.22;;;30.21;36.05
21234;BME280;10774;42.178;26.578;2022-08-03T09:22:31;99967.44;;;30.12;35.41
21234;BME280;10774;42.178;26.578;2022-08-03T09:25:06;99945.81;;;30.21;36.01
21234;BME280;10774;42.178;26.578;2022-08-03T09:27:42;99946.13;;;30.38;35.55
21234;BME280;10774;42.178;26.578;2022-08-03T09:30:16;99944.53;;;30.24;34.98
21234;BME280;10774;42.178;26.578;2022-08-03T09:32:43;99940.41;;;30.33;35.83
21234;BME280;10774;42.178;26.578;2022-08-03T09:35:11;99949.34;;;30.78;34.62
21234;BME280;10774;42.178;26.578;2022-08-03T09:37:37;99935.81;;;31.07;35.07
21234;BME280;10774;42.178;26.578;2022-08-03T09:40:03;99936.69;;;31.37;33.86
21234;BME280;10774;42.178;26.578;2022-08-03T09:42:29;99935.50;;;30.78;34.54
21234;BME280;10774;42.178;26.578;2022-08-03T09:44:54;99925.34;;;31.27;34.69
21234;BME280;10774;42.178;26.578;2022-08-03T09:47:33;99919.78;;;31.57;34.05
21234;BME280;10774;42.178;26.578;2022-08-03T09:50:05;99930.84;;;31.45;33.68
21234;BME280;10774;42.178;26.578;2022-08-03T09:54:58;99938.25;;;31.15;33.25
21234;BME280;10774;42.178;26.578;2022-08-03T09:57:25;99923.78;;;31.13;33.41
21234;BME280;10774;42.178;26.578;2022-08-03T09:59:51;99931.13;;;30.45;34.26
21234;BME280;10774;42.178;26.578;2022-08-03T10:02:22;99914.84;;;30.74;32.73
21234;BME280;10774;42.178;26.578;2022-08-03T10:04:48;99924.19;;;30.98;34.36
21234;BME280;10774;42.178;26.578;2022-08-03T10:07:19;99920.94;;;31.38;33.75
21234;BME280;10774;42.178;26.578;2022-08-03T10:09:54;99929.56;;;31.60;32.87
21234;BME280;10774;42.178;26.578;2022-08-03T10:12:20;99913.94;;;31.17;33.44
21234;BME280;10774;42.178;26.578;2022-08-03T10:14:46;99927.91;;;30.67;33.31
21234;BME280;10774;42.178;26.578;2022-08-03T10:17:12;99904.03;;;31.21;32.73
21234;BME280;10774;42.178;26.578;2022-08-03T10:19:38;99904.84;;;31.28;33.51
21234;BME280;10774;42.178;26.578;2022-08-03T10:22:25;99913.31;;;31.33;33.61
21234;BME280;10774;42.178;26.578;2022-08-03T10:27:21;99902.09;;;32.35;32.55
21234;BME280;10774;42.178;26.578;2022-08-03T10:29:51;99894.66;;;31.82;32.87
21234;BME280;10774;42.178;26.578;2022-08-03T10:32:21;99901.00;;;32.36;32.19
21234;BME280;10774;42.178;26.578;2022-08-03T10:34:50;99904.41;;;32.38;32.22
21234;BME280;10774;42.178;26.578;2022-08-03T10:37:19;99903.00;;;31.64;32.43
21234;BME280;10774;42.178;26.578;2022-08-03T10:39:48;99910.50;;;32.05;32.61
21234;BME280;10774;42.178;26.578;2022-08-03T10:42:20;99905.78;;;32.06;33.06
21234;BME280;10774;42.178;26.578;2022-08-03T10:44:49;99899.59;;;31.80;32.36
21234;BME280;10774;42.178;26.578;2022-08-03T10:47:17;99888.28;;;31.93;33.17
21234;BME280;10774;42.178;26.578;2022-08-03T10:49:43;99889.78;;;31.66;32.51
21234;BME280;10774;42.178;26.578;2022-08-03T10:52:10;99880.31;;;31.85;33.22
21234;BME280;10774;42.178;26.578;2022-08-03T10:57:02;99873.47;;;32.23;32.83
21234;BME280;10774;42.178;26.578;2022-08-03T11:02:15;99877.94;;;31.59;32.83
21234;BME280;10774;42.178;26.578;2022-08-03T11:04:42;99880.94;;;32.58;33.67
21234;BME280;10774;42.178;26.578;2022-08-03T11:09:42;99866.38;;;33.02;31.85
21234;BME280;10774;42.178;26.578;2022-08-03T11:12:26;99863.91;;;32.19;32.48
21234;BME280;10774;42.178;26.578;2022-08-03T11:14:52;99875.63;;;31.97;33.04
21234;BME280;10774;42.178;26.578;2022-08-03T11:17:18;99853.31;;;31.74;31.78
21234;BME280;10774;42.178;26.578;2022-08-03T11:19:46;99851.22;;;31.99;33.22
21234;BME280;10774;42.178;26.578;2022-08-03T11:22:12;99841.09;;;32.40;32.57
21234;BME280;10774;42.178;26.578;2022-08-03T11:30:00;99848.28;;;33.17;31.78
21234;BME280;10774;42.178;26.578;2022-08-03T11:35:32;99848.00;;;33.92;30.66
21234;BME280;10774;42.178;26.578;2022-08-03T11:40:48;99849.59;;;32.86;30.54
21234;BME280;10774;42.178;26.578;2022-08-03T11:48:33;99850.38;;;32.34;31.32
21234;BME280;10774;42.178;26.578;2022-08-03T11:50:59;99844.31;;;33.13;30.59
21234;BME280;10774;42.178;26.578;2022-08-03T11:53:25;99853.03;;;32.64;31.36
21234;BME280;10774;42.178;26.578;2022-08-03T11:55:51;99846.94;;;32.79;31.56
21234;BME280;10774;42.178;26.578;2022-08-03T11:58:19;99834.34;;;32.36;31.52
21234;BME280;10774;42.178;26.578;2022-08-03T12:00:45;99838.06;;;32.53;30.93
21234;BME280;10774;42.178;26.578;2022-08-03T12:03:13;99835.88;;;32.56;30.27
21234;BME280;10774;42.178;26.578;2022-08-03T12:05:45;99824.72;;;31.62;30.93
21234;BME280;10774;42.178;26.578;2022-08-03T12:08:14;99817.88;;;31.76;30.40
21234;BME280;10774;42.178;26.578;2022-08-03T12:10:45;99832.78;;;32.92;30.96
21234;BME280;10774;42.178;26.578;2022-08-03T12:13:11;99813.31;;;33.21;29.05
21234;BME280;10774;42.178;26.578;2022-08-03T12:15:36;99819.25;;;32.84;28.79
21234;BME280;10774;42.178;26.578;2022-08-03T12:18:11;99815.31;;;32.68;30.23
21234;BME280;10774;42.178;26.578;2022-08-03T12:20:37;99831.06;;;32.51;29.89
21234;BME280;10774;42.178;26.578;2022-08-03T12:23:05;99824.50;;;32.57;29.98
21234;BME280;10774;42.178;26.578;2022-08-03T12:25:32;99819.25;;;32.84;28.64
21234;BME280;10774;42.178;26.578;2022-08-03T12:28:19;99818.00;;;33.03;29.41
21234;BME280;10774;42.178;26.578;2022-08-03T12:30:49;99805.56;;;33.23;28.59
21234;BME280;10774;42.178;26.578;2022-08-03T12:33:21;99813.50;;;33.76;29.97
21234;BME280;10774;42.178;26.578;2022-08-03T12:35:48;99810.16;;;34.30;28.12
21234;BME280;10774;42.178;26.578;2022-08-03T12:38:19;99804.28;;;33.93;27.92
21234;BME280;10774;42.178;26.578;2022-08-03T12:41:01;99797.47;;;33.67;28.30
21234;BME280;10774;42.178;26.578;2022-08-03T12:43:27;99802.88;;;33.28;28.42
21234;BME280;10774;42.178;26.578;2022-08-03T12:46:10;99798.97;;;34.47;28.41
21234;BME280;10774;42.178;26.578;2022-08-03T12:48:36;99809.75;;;35.04;26.83
21234;BME280;10774;42.178;26.578;2022-08-03T12:51:09;99799.22;;;35.11;27.71
21234;BME280;10774;42.178;26.578;2022-08-03T12:53:35;99798.84;;;34.58;26.10
21234;BME280;10774;42.178;26.578;2022-08-03T12:56:01;99772.94;;;34.19;27.84
21234;BME280;10774;42.178;26.578;2022-08-03T12:58:29;99787.75;;;35.07;26.85
21234;BME280;10774;42.178;26.578;2022-08-03T13:00:57;99784.47;;;33.55;27.45
21234;BME280;10774;42.178;26.578;2022-08-03T13:03:23;99789.78;;;34.46;26.51
21234;BME280;10774;42.178;26.578;2022-08-03T13:05:48;99792.53;;;35.39;26.14
21234;BME280;10774;42.178;26.578;2022-08-03T13:08:18;99793.72;;;35.48;25.29
21234;BME280;10774;42.178;26.578;2022-08-03T13:10:44;99790.09;;;34.72;26.18
21234;BME280;10774;42.178;26.578;2022-08-03T13:13:10;99802.56;;;35.67;26.26
21234;BME280;10774;42.178;26.578;2022-08-03T13:15:35;99797.41;;;36.23;25.18
21234;BME280;10774;42.178;26.578;2022-08-03T13:18:01;99773.44;;;37.10;25.62
21234;BME280;10774;42.178;26.578;2022-08-03T13:20:26;99775.47;;;35.68;24.87
21234;BME280;10774;42.178;26.578;2022-08-03T13:22:52;99786.94;;;35.39;25.45
21234;BME280;10774;42.178;26.578;2022-08-03T13:25:18;99780.72;;;37.06;24.92
21234;BME280;10774;42.178;26.578;2022-08-03T13:27:44;99786.34;;;37.27;24.18
21234;BME280;10774;42.178;26.578;2022-08-03T13:30:10;99777.94;;;36.44;24.54
21234;BME280;10774;42.178;26.578;2022-08-03T13:32:36;99784.06;;;36.98;24.80